createdAt,value
2019-04-06T00:01:11.014Z,99.90
2019-04-06T00:03:42.278Z,99.90
2019-04-06T00:08:43.730Z,99.90
2019-04-06T00:11:14.766Z,99.90
2019-04-06T00:16:16.279Z,99.90
2019-04-06T00:18:47.795Z,99.90
2019-04-06T00:21:19.345Z,99.90
2019-04-06T00:26:20.950Z,99.90
2019-04-06T00:28:52.162Z,99.90
2019-04-06T00:31:45.762Z,99.90
2019-04-06T00:34:16.974Z,99.90
2019-04-06T00:36:48.266Z,99.90
2019-04-06T00:39:19.476Z,99.90
2019-04-06T00:41:50.626Z,99.90
2019-04-06T00:44:22.274Z,99.90
2019-04-06T00:46:54.386Z,99.90
2019-04-06T00:49:25.477Z,99.90
2019-04-06T00:51:56.646Z,99.90
2019-04-06T00:54:27.790Z,99.90
2019-04-06T00:59:29.454Z,99.90
2019-04-06T01:02:00.595Z,99.90
2019-04-06T01:04:31.853Z,99.90
2019-04-06T01:07:03.309Z,99.90
2019-04-06T01:09:34.471Z,99.90
2019-04-06T01:12:05.932Z,99.90
2019-04-06T01:14:37.245Z,99.90
2019-04-06T01:17:08.526Z,99.90
2019-04-06T01:19:39.721Z,99.90
2019-04-06T01:22:10.942Z,99.90
2019-04-06T01:24:42.137Z,99.90
2019-04-06T01:27:13.281Z,99.90
2019-04-06T01:29:44.421Z,99.90
2019-04-06T01:32:26.267Z,99.90
2019-04-06T01:34:57.866Z,99.90
2019-04-06T01:37:29.063Z,99.90
2019-04-06T01:40:00.259Z,99.90
2019-04-06T01:42:31.508Z,99.90
2019-04-06T01:45:02.762Z,99.90
2019-04-06T01:47:34.021Z,99.90
2019-04-06T01:52:35.624Z,99.90
2019-04-06T01:55:07.033Z,99.90
2019-04-06T01:57:38.186Z,99.90
2019-04-06T02:00:11.518Z,99.90
2019-04-06T02:02:45.102Z,99.90
2019-04-06T02:05:16.122Z,99.90
2019-04-06T02:07:47.670Z,99.90
2019-04-06T02:10:19.206Z,99.90
2019-04-06T02:12:50.376Z,99.90
2019-04-06T02:15:21.534Z,99.90
2019-04-06T02:17:52.637Z,99.90
2019-04-06T02:20:23.874Z,99.90
2019-04-06T02:22:55.050Z,99.90
2019-04-06T02:27:56.502Z,99.90
2019-04-06T02:30:34.578Z,99.90
2019-04-06T02:33:23.604Z,99.90
2019-04-06T02:36:13.629Z,99.90
2019-04-06T02:39:16.269Z,99.90
2019-04-06T02:41:59.291Z,99.90
2019-04-06T02:44:30.434Z,99.90
2019-04-06T02:47:01.986Z,99.90
2019-04-06T02:49:33.375Z,99.90
2019-04-06T02:52:04.482Z,99.90
2019-04-06T02:54:35.621Z,99.90
2019-04-06T02:57:06.758Z,99.90
2019-04-06T02:59:38.019Z,99.90
2019-04-06T03:02:09.374Z,99.90
2019-04-06T03:04:40.544Z,99.90
2019-04-06T03:07:11.686Z,99.90
2019-04-06T03:09:42.983Z,99.90
2019-04-06T03:12:14.161Z,99.90
2019-04-06T03:14:45.936Z,99.90
2019-04-06T03:17:16.917Z,99.90
2019-04-06T03:19:48.082Z,99.90
2019-04-06T03:22:19.282Z,99.90
2019-04-06T03:24:50.466Z,99.90
2019-04-06T03:27:21.747Z,99.90
2019-04-06T03:29:58.503Z,99.90
2019-04-06T03:32:26.227Z,99.90
2019-04-06T03:34:57.775Z,99.90
2019-04-06T03:37:28.870Z,99.90
2019-04-06T03:40:00.377Z,99.90
2019-04-06T03:42:31.630Z,99.90
2019-04-06T03:45:02.936Z,99.90
2019-04-06T03:47:34.624Z,99.90
2019-04-06T03:50:06.354Z,99.90
2019-04-06T03:52:37.471Z,99.90
2019-04-06T03:55:09.351Z,99.90
2019-04-06T03:57:40.707Z,99.90
2019-04-06T04:02:43.883Z,99.90
2019-04-06T04:05:15.125Z,99.90
2019-04-06T04:07:46.200Z,99.90
2019-04-06T04:10:34.666Z,99.90
2019-04-06T04:13:06.096Z,99.90
2019-04-06T04:15:37.254Z,99.90
2019-04-06T04:18:08.367Z,99.90
2019-04-06T04:20:39.799Z,99.90
2019-04-06T04:23:11.276Z,99.90
2019-04-06T04:25:42.471Z,99.90
2019-04-06T04:28:13.815Z,99.90
2019-04-06T04:33:15.178Z,99.90
2019-04-06T04:35:46.282Z,99.90
2019-04-06T04:38:17.339Z,99.90
2019-04-06T04:40:49.475Z,99.90
2019-04-06T04:43:21.165Z,99.90
2019-04-06T04:45:52.432Z,99.90
2019-04-06T04:48:24.274Z,99.90
2019-04-06T04:51:01.326Z,99.90
2019-04-06T04:53:32.880Z,99.90
2019-04-06T04:56:04.253Z,99.90
2019-04-06T04:58:35.416Z,99.90
2019-04-06T05:01:06.829Z,99.90
2019-04-06T05:03:39.473Z,99.90
2019-04-06T05:08:48.301Z,99.90
2019-04-06T05:11:19.418Z,99.90
2019-04-06T05:13:52.442Z,99.90
2019-04-06T05:16:25.325Z,99.90
2019-04-06T05:18:56.950Z,99.90
2019-04-06T05:21:28.280Z,99.90
2019-04-06T05:23:59.678Z,99.90
2019-04-06T05:26:37.397Z,99.90
2019-04-06T05:29:04.032Z,99.90
2019-04-06T05:31:35.242Z,99.90
2019-04-06T05:34:06.366Z,99.90
2019-04-06T05:36:37.826Z,99.90
2019-04-06T05:39:09.058Z,99.90
2019-04-06T05:41:40.447Z,99.90
2019-04-06T05:44:11.990Z,99.90
2019-04-06T05:46:43.722Z,99.90
2019-04-06T05:49:15.250Z,99.90
2019-04-06T05:51:46.677Z,99.90
2019-04-06T05:59:18.439Z,99.90
2019-04-06T06:01:49.881Z,99.90
2019-04-06T06:04:22.170Z,99.90
2019-04-06T06:09:23.650Z,99.90
2019-04-06T06:11:55.921Z,99.90
2019-04-06T06:14:27.614Z,99.90
2019-04-06T06:16:58.995Z,99.90
2019-04-06T06:19:30.218Z,99.90
2019-04-06T06:22:01.875Z,99.90
2019-04-06T06:24:34.698Z,99.90
2019-04-06T06:27:05.953Z,99.90
2019-04-06T06:29:37.294Z,99.90
2019-04-06T06:32:08.462Z,99.90
2019-04-06T06:34:39.786Z,99.90
2019-04-06T06:42:11.396Z,99.90
2019-04-06T06:44:42.737Z,99.90
2019-04-06T06:47:14.191Z,99.90
2019-04-06T06:49:45.606Z,99.90
2019-04-06T06:52:17.865Z,97.70
2019-04-06T06:54:49.134Z,98.00
2019-04-06T06:57:39.508Z,95.30
2019-04-06T07:00:13.867Z,95.20
2019-04-06T07:02:45.408Z,94.10
2019-04-06T07:05:17.029Z,91.80
2019-04-06T07:07:48.663Z,91.80
2019-04-06T07:12:50.650Z,85.90
2019-04-06T07:15:23.371Z,83.80
2019-04-06T07:17:54.751Z,81.90
2019-04-06T07:22:56.597Z,79.70
2019-04-06T07:25:28.002Z,80.40
2019-04-06T07:27:59.778Z,78.50
2019-04-06T07:30:31.101Z,76.70
2019-04-06T07:33:02.586Z,73.60
2019-04-06T07:40:34.718Z,70.00
2019-04-06T07:43:06.434Z,69.00
2019-04-06T07:45:38.554Z,68.50
2019-04-06T07:48:10.330Z,65.00
2019-04-06T07:50:41.508Z,67.10
2019-04-06T07:53:13.210Z,63.70
2019-04-06T07:55:45.095Z,64.80
2019-04-06T07:58:16.850Z,63.40
2019-04-06T08:00:48.640Z,63.20
2019-04-06T08:03:19.845Z,59.80
2019-04-06T08:05:50.981Z,58.00
2019-04-06T08:08:22.363Z,60.30
2019-04-06T08:10:54.078Z,59.70
2019-04-06T08:13:25.269Z,57.90
2019-04-06T08:15:56.989Z,59.20
2019-04-06T08:18:28.751Z,59.20
2019-04-06T08:21:00.527Z,57.90
2019-04-06T08:23:32.291Z,55.10
2019-04-06T08:26:04.986Z,55.70
2019-04-06T08:31:07.583Z,53.70
2019-04-06T08:36:10.158Z,52.70
2019-04-06T08:38:41.898Z,53.30
2019-04-06T08:41:13.585Z,48.80
2019-04-06T08:43:45.218Z,49.60
2019-04-06T08:46:17.026Z,50.70
2019-04-06T08:51:19.370Z,49.60
2019-04-06T08:53:51.126Z,49.60
2019-04-06T08:56:23.054Z,49.10
2019-04-06T08:58:54.986Z,48.80
2019-04-06T09:01:26.854Z,49.90
2019-04-06T09:06:29.545Z,47.50
2019-04-06T09:09:01.266Z,47.60
2019-04-06T09:11:34.866Z,47.20
2019-04-06T09:14:06.678Z,45.40
2019-04-06T09:16:38.448Z,47.00
2019-04-06T09:19:10.166Z,45.60
2019-04-06T09:21:42.075Z,45.60
2019-04-06T09:24:13.866Z,45.10
2019-04-06T09:26:48.007Z,45.10
2019-04-06T09:29:24.147Z,44.70
2019-04-06T09:31:52.423Z,43.50
2019-04-06T09:34:24.206Z,44.30
2019-04-06T09:36:55.958Z,44.20
2019-04-06T09:39:27.719Z,45.10
2019-04-06T09:41:59.578Z,43.80
2019-04-06T09:44:40.056Z,43.30
2019-04-06T09:50:26.761Z,43.30
2019-04-06T09:53:33.575Z,41.90
2019-04-06T09:56:33.745Z,41.90
2019-04-06T09:59:34.849Z,42.40
2019-04-06T10:02:16.763Z,40.70
2019-04-06T10:05:14.334Z,39.80
2019-04-06T10:08:11.262Z,40.10
2019-04-06T10:11:11.866Z,40.40
2019-04-06T10:14:02.888Z,38.90
2019-04-06T10:16:55.266Z,38.60
2019-04-06T10:19:44.417Z,37.70
2019-04-06T10:22:38.156Z,36.00
2019-04-06T10:25:25.582Z,35.70
2019-04-06T10:28:15.163Z,37.60
2019-04-06T10:30:57.405Z,37.40
2019-04-06T10:33:56.891Z,36.80
2019-04-06T10:36:35.711Z,36.70
2019-04-06T10:39:26.370Z,36.80
2019-04-06T10:45:11.300Z,36.90
2019-04-06T10:48:01.959Z,36.40
2019-04-06T10:51:05.457Z,34.70
2019-04-06T10:54:02.024Z,36.70
2019-04-06T10:57:07.791Z,35.70
2019-04-06T11:00:01.440Z,35.40
2019-04-06T11:03:01.969Z,36.50
2019-04-06T11:06:04.847Z,35.00
2019-04-06T11:08:45.993Z,35.10
2019-04-06T11:11:35.358Z,34.90
2019-04-06T11:17:27.734Z,34.80
2019-04-06T11:20:10.532Z,34.00
2019-04-06T11:22:50.882Z,34.90
2019-04-06T11:28:29.025Z,34.00
2019-04-06T11:31:29.239Z,33.80
2019-04-06T11:34:35.183Z,33.90
2019-04-06T11:37:34.909Z,33.00
2019-04-06T11:40:25.697Z,33.50
2019-04-06T11:46:04.794Z,33.50
2019-04-06T11:48:55.513Z,32.00
2019-04-06T11:51:49.163Z,32.20
2019-04-06T11:54:45.515Z,32.60
2019-04-06T11:57:39.492Z,33.00
2019-04-06T12:00:30.246Z,31.50
2019-04-06T12:03:12.076Z,33.10
2019-04-06T12:05:51.512Z,32.70
2019-04-06T12:08:37.729Z,30.40
2019-04-06T12:11:29.018Z,30.20
2019-04-06T12:14:23.647Z,30.50
2019-04-06T12:17:26.642Z,31.60
2019-04-06T12:20:17.498Z,32.20
2019-04-06T12:23:22.147Z,30.20
2019-04-06T12:26:11.651Z,31.10
2019-04-06T12:29:00.987Z,30.00
2019-04-06T12:31:50.452Z,31.30
2019-04-06T12:34:50.272Z,31.40
2019-04-06T12:40:25.393Z,32.50
2019-04-06T12:43:10.342Z,31.60
2019-04-06T12:46:14.055Z,30.00
2019-04-06T12:49:03.582Z,30.80
2019-04-06T12:51:43.336Z,30.30
2019-04-06T12:54:34.258Z,29.90
2019-04-06T12:57:23.807Z,30.20
2019-04-06T13:00:13.035Z,30.90
2019-04-06T13:02:55.742Z,31.70
2019-04-06T13:05:43.722Z,31.30
2019-04-06T13:08:28.148Z,31.40
2019-04-06T13:11:19.714Z,31.00
2019-04-06T13:14:19.314Z,30.00
2019-04-06T13:17:06.590Z,30.20
2019-04-06T13:25:26.990Z,30.40
2019-04-06T13:28:21.266Z,33.10
2019-04-06T13:31:17.111Z,33.30
2019-04-06T13:34:09.888Z,33.60
2019-04-06T13:37:00.909Z,33.30
2019-04-06T13:39:48.547Z,31.10
2019-04-06T13:42:32.452Z,30.60
2019-04-06T13:45:21.638Z,30.40
2019-04-06T13:48:05.010Z,30.90
2019-04-06T13:51:00.471Z,31.30
2019-04-06T13:56:46.270Z,31.30
2019-04-06T13:59:45.947Z,32.20
2019-04-06T14:02:35.487Z,31.50
2019-04-06T14:05:27.034Z,31.40
2019-04-06T14:08:20.765Z,31.80
2019-04-06T14:11:23.730Z,31.40
2019-04-06T14:20:23.726Z,32.40
2019-04-06T14:23:09.214Z,33.00
2019-04-06T14:25:58.970Z,32.80
2019-04-06T14:28:55.450Z,32.00
2019-04-06T14:37:23.010Z,32.40
2019-04-06T14:46:22.714Z,32.70
2019-04-06T14:49:29.467Z,34.20
2019-04-06T14:54:53.397Z,34.80
2019-04-06T14:57:34.167Z,33.80
2019-04-06T15:00:31.401Z,34.40
2019-04-06T15:06:07.630Z,35.90
2019-04-06T15:09:13.375Z,36.50
2019-04-06T15:11:51.970Z,37.60
2019-04-06T15:14:42.615Z,37.60
2019-04-06T15:17:36.378Z,38.20
2019-04-06T15:20:27.461Z,38.60
2019-04-06T15:23:10.314Z,39.70
2019-04-06T15:29:11.809Z,40.50
2019-04-06T15:31:59.945Z,41.10
2019-04-06T15:34:49.590Z,41.30
2019-04-06T15:40:45.738Z,41.50
2019-04-06T15:43:48.789Z,42.20
2019-04-06T15:46:42.549Z,43.00
2019-04-06T15:52:25.650Z,43.70
2019-04-06T15:57:58.154Z,44.50
2019-04-06T16:00:40.310Z,45.40
2019-04-06T16:03:34.934Z,45.70
2019-04-06T16:09:28.198Z,50.20
2019-04-06T16:12:22.827Z,51.90
2019-04-06T16:15:19.625Z,53.10
2019-04-06T16:18:04.918Z,53.50
2019-04-06T16:20:45.976Z,52.90
2019-04-06T16:26:29.163Z,53.10
2019-04-06T16:29:25.185Z,53.40
2019-04-06T16:32:31.479Z,53.70
2019-04-06T16:35:26.014Z,54.30
2019-04-06T16:38:05.873Z,54.40
2019-04-06T16:41:01.159Z,55.90
2019-04-06T16:44:10.263Z,55.80
2019-04-06T16:47:12.994Z,56.50
2019-04-06T16:52:58.604Z,56.80
2019-04-06T16:55:47.290Z,57.10
2019-04-06T16:58:49.420Z,57.60
2019-04-06T17:06:59.870Z,57.80
2019-04-06T17:09:50.102Z,57.90
2019-04-06T17:12:49.273Z,58.40
2019-04-06T17:15:42.421Z,59.00
2019-04-06T17:18:44.613Z,59.30
2019-04-06T17:21:30.606Z,59.80
2019-04-06T17:24:10.262Z,60.20
2019-04-06T17:27:03.673Z,60.80
2019-04-06T17:29:48.557Z,60.80
2019-04-06T17:32:44.817Z,61.10
2019-04-06T17:38:32.180Z,63.10
2019-04-06T17:44:01.370Z,64.60
2019-04-06T17:46:51.753Z,65.30
2019-04-06T17:49:47.271Z,66.30
2019-04-06T17:52:33.785Z,67.50
2019-04-06T17:58:31.689Z,69.80
2019-04-06T18:01:25.266Z,69.90
2019-04-06T18:04:21.377Z,70.70
2019-04-06T18:07:17.615Z,71.00
2019-04-06T18:10:10.977Z,72.30
2019-04-06T18:13:04.456Z,73.50
2019-04-06T18:15:36.169Z,74.90
2019-04-06T18:18:07.358Z,75.80
2019-04-06T18:20:38.470Z,76.60
2019-04-06T18:23:09.718Z,77.90
2019-04-06T18:25:41.266Z,78.10
2019-04-06T18:28:12.459Z,79.50
2019-04-06T18:35:51.505Z,85.40
2019-04-06T18:38:36.493Z,92.00
2019-04-06T18:41:07.971Z,98.20
2019-04-06T18:43:39.845Z,99.90
2019-04-06T18:46:15.797Z,99.90
2019-04-06T18:48:47.419Z,99.90
2019-04-06T18:51:20.640Z,99.90
2019-04-06T18:53:52.933Z,99.90
2019-04-06T18:58:56.513Z,99.90
2019-04-06T19:01:27.891Z,99.90
2019-04-06T19:03:59.135Z,99.90
2019-04-06T19:16:31.869Z,99.90
2019-04-06T19:19:03.632Z,99.90
2019-04-06T19:21:35.171Z,99.90
2019-04-06T19:24:06.653Z,99.90
2019-04-06T19:26:38.688Z,99.90
2019-04-06T19:29:10.828Z,99.90
2019-04-06T19:31:42.278Z,99.90
2019-04-06T19:34:13.719Z,99.90
2019-04-06T19:36:44.769Z,99.90
2019-04-06T19:39:16.136Z,99.90
2019-04-06T19:41:48.328Z,99.90
2019-04-06T19:44:19.684Z,99.90
2019-04-06T19:46:51.346Z,99.90
2019-04-06T19:49:23.083Z,99.90
2019-04-06T19:51:54.438Z,99.90
2019-04-06T19:54:26.096Z,99.90
2019-04-06T19:56:57.415Z,99.90
2019-04-06T19:59:28.904Z,99.90
2019-04-06T20:02:00.468Z,99.90
2019-04-06T20:04:31.913Z,99.90
2019-04-06T20:07:03.607Z,99.90
2019-04-06T20:09:35.512Z,99.90
2019-04-06T20:12:07.791Z,99.90
2019-04-06T20:14:40.710Z,99.90
2019-04-06T20:17:13.264Z,99.90
2019-04-06T20:22:15.633Z,99.90
2019-04-06T20:24:47.308Z,99.90
2019-04-06T20:27:19.814Z,99.90
2019-04-06T20:29:51.066Z,99.90
2019-04-06T20:32:22.348Z,99.90
2019-04-06T20:34:53.817Z,99.90
2019-04-06T20:37:26.738Z,99.90
2019-04-06T20:39:58.091Z,99.90
2019-04-06T20:42:29.478Z,99.90
2019-04-06T20:45:00.599Z,99.90
2019-04-06T20:50:02.745Z,99.90
2019-04-06T20:52:34.398Z,99.90
2019-04-06T20:55:06.340Z,99.90
2019-04-06T20:57:38.346Z,99.90
2019-04-06T21:00:10.978Z,99.90
2019-04-06T21:02:59.073Z,99.90
2019-04-06T21:05:30.085Z,99.90
2019-04-06T21:08:02.234Z,99.90
2019-04-06T21:10:34.064Z,99.90
2019-04-06T21:13:11.183Z,99.90
2019-04-06T21:15:45.943Z,99.90
2019-04-06T21:18:17.809Z,99.90
2019-04-06T21:20:49.498Z,99.90
2019-04-06T21:23:20.772Z,99.90
2019-04-06T21:25:52.908Z,99.90
2019-04-06T21:28:24.498Z,99.90
2019-04-06T21:30:55.698Z,99.90
2019-04-06T21:33:26.882Z,99.90
2019-04-06T21:35:58.335Z,99.90
2019-04-06T21:38:29.609Z,99.90
2019-04-06T21:41:00.705Z,99.90
2019-04-06T21:43:32.743Z,99.90
2019-04-06T21:46:04.118Z,99.90
2019-04-06T21:48:35.255Z,99.90
2019-04-06T21:51:06.681Z,99.90
2019-04-06T21:53:38.224Z,99.90
2019-04-06T21:56:09.820Z,99.90
2019-04-06T21:58:41.493Z,99.90
2019-04-06T22:01:15.302Z,99.90
2019-04-06T22:03:48.436Z,99.90
2019-04-06T22:06:20.613Z,99.90
2019-04-06T22:08:52.221Z,99.90
2019-04-06T22:11:23.374Z,99.90
2019-04-06T22:13:54.561Z,99.90
2019-04-06T22:16:25.815Z,99.90
2019-04-06T22:18:56.981Z,99.90
2019-04-06T22:21:28.256Z,99.90
2019-04-06T22:23:59.362Z,99.90
2019-04-06T22:26:30.618Z,99.90
2019-04-06T22:29:02.667Z,99.90
2019-04-06T22:31:33.686Z,99.90
2019-04-06T22:34:05.066Z,99.90
2019-04-06T22:36:36.833Z,99.90
2019-04-06T22:39:08.974Z,99.90
2019-04-06T22:41:40.539Z,99.90
2019-04-06T22:44:11.678Z,99.90
2019-04-06T22:46:43.262Z,99.90
2019-04-06T22:49:14.628Z,99.90
2019-04-06T22:51:45.998Z,99.90
2019-04-06T22:54:17.386Z,99.90
2019-04-06T22:56:48.653Z,99.90
2019-04-06T22:59:19.811Z,99.90
2019-04-06T23:02:05.452Z,99.90
2019-04-06T23:04:57.723Z,99.90
2019-04-06T23:07:29.245Z,99.90
2019-04-06T23:10:01.108Z,99.90
2019-04-06T23:12:32.520Z,99.90
2019-04-06T23:15:03.841Z,99.90
2019-04-06T23:17:34.946Z,99.90
2019-04-06T23:20:06.509Z,99.90
2019-04-06T23:22:38.583Z,99.90
2019-04-06T23:25:09.774Z,99.90
2019-04-06T23:27:40.889Z,99.90
2019-04-06T23:30:12.291Z,99.90
2019-04-06T23:32:56.016Z,99.90
2019-04-06T23:35:27.253Z,99.90
2019-04-06T23:37:58.765Z,99.90
2019-04-06T23:40:30.489Z,99.90
2019-04-06T23:43:02.182Z,99.90
2019-04-06T23:45:33.376Z,99.90
2019-04-06T23:48:04.591Z,99.90
2019-04-06T23:50:35.923Z,99.90
2019-04-06T23:53:07.834Z,99.90
2019-04-06T23:55:39.150Z,99.90
2019-04-06T23:58:10.841Z,99.90
